Startpagina
METAR-TAF:

METAR-TAF

Vliegvelden :

Vliegbasis Koksijde

Koksijde, België

breedte: 51-05N, lengte: 002-39E, hoogte: 4 m

Actueel weer

Dit bericht is 45 minuten geleden gemaakt, om 07:55 UTC
Wind 8 kt uit het zuidzuidoosten
Temperatuur 8°C
Vochtigheid 87%
Druk 1020 hPa
Zicht: 9000 m
Gebroken wolken op 24000 ft

METAR: EBFN 180755Z 16008KT 9000 BKN240 08/06 Q1020 BLU BLU

Tijdstip: 10:40 (08:40 UTC)

Verwachting

Dit bericht is 2 uur en het 59 minuten geleden gemaakt, om 05:41 UTC
Verwachting geldig van 18 om 07 UTC tot 18 om 16 UTC
Wind 10 kt uit het zuiden
Zicht 10 km of meer
Gebroken wolken op 22000 ft

TAF: EBFN 180541Z 1807/1816 18010KT 9999 BKN220 BY EBWM

Waarnemingen en weersverwachtingen van meer dan 4000 vliegvelden (METAR en TAF).

De beschikbare stations zijn de gele en rode punten op de kaart.

Ga met uw muis naar het station om de naam te zien.

Klik dan om waarnemingen en weersverwachtingen te zien.

kaart wijzigen: klik op de groene knoppen met een zwart kruis om in te zoomen, op de groene knop met een streepje om uit te zoomen of op de groene pijlen voor aangrenzende kaarten.


METAR-TAF: